Stamford, South Dakota
Current Conditions -  °F | °C
As of 7:55 AM on Friday 24 Oct 2014 (Local Time) from KPHP Reporting Station
Clear Clear  
Wind Chill: 40°   Ceiling: Unl
Heat Index: 40°   Visibility: 10mi
Dew Point: 33°   Wind: 3mph
Humidity: 77%   Direction: 290°WNW
Pressure: 29.93"   Gusts: NA
Location:  44.3169°N, 101.368°W
Report Text: KPHP 241355Z AUTO 29003KT 10SM CLR 04/01 A2993 RMK AO2 SLP141 T00440006
Loading
Personal Weather Stations






























Interactive Weather Map
Tropical Storm Tracking
New forecast layout! Learn more

10-Day Weather Forecast

Advertisements
Track Severe Weather on mobile